createdAt,value
2018-11-25T00:00:30.617Z,5.50
2018-11-25T00:02:59.565Z,5.60
2018-11-25T00:07:56.418Z,5.50
2018-11-25T00:10:25.400Z,5.50
2018-11-25T00:12:55.186Z,5.60
2018-11-25T00:15:24.121Z,5.60
2018-11-25T00:17:53.092Z,5.60
2018-11-25T00:20:22.027Z,5.60
2018-11-25T00:22:50.969Z,5.60
2018-11-25T00:25:19.930Z,5.70
2018-11-25T00:27:48.880Z,5.60
2018-11-25T00:30:17.891Z,5.50
2018-11-25T00:32:46.792Z,5.50
2018-11-25T00:35:16.521Z,5.50
2018-11-25T00:37:48.217Z,5.60
2018-11-25T00:40:15.334Z,5.60
2018-11-25T00:42:44.881Z,5.60
2018-11-25T00:45:15.068Z,5.70
2018-11-25T00:47:44.021Z,5.70
2018-11-25T00:50:14.609Z,5.80
2018-11-25T00:52:43.628Z,5.80
2018-11-25T00:55:17.424Z,5.80
2018-11-25T00:57:46.498Z,5.70
2018-11-25T01:00:18.412Z,5.80
2018-11-25T01:02:49.417Z,5.80
2018-11-25T01:05:18.381Z,5.80
2018-11-25T01:07:47.350Z,5.70
2018-11-25T01:10:16.813Z,5.70
2018-11-25T01:12:46.055Z,5.70
2018-11-25T01:15:16.807Z,5.70
2018-11-25T01:17:45.868Z,5.70
2018-11-25T01:20:18.712Z,5.70
2018-11-25T01:22:47.667Z,5.80
2018-11-25T01:25:16.594Z,5.90
2018-11-25T01:27:45.563Z,5.80
2018-11-25T01:30:15.382Z,5.80
2018-11-25T01:32:44.336Z,5.70
2018-11-25T01:35:13.519Z,5.70
2018-11-25T01:37:42.564Z,5.80
2018-11-25T01:40:17.312Z,5.80
2018-11-25T01:42:46.323Z,5.70
2018-11-25T01:45:16.105Z,5.70
2018-11-25T01:47:45.111Z,5.80
2018-11-25T01:50:17.984Z,5.80
2018-11-25T01:52:47.503Z,5.70
2018-11-25T01:55:18.446Z,5.70
2018-11-25T01:57:47.417Z,5.80
2018-11-25T02:00:19.265Z,5.80
2018-11-25T02:02:48.274Z,5.80
2018-11-25T02:05:17.221Z,5.90
2018-11-25T02:07:46.167Z,5.90
2018-11-25T02:10:16.071Z,5.90
2018-11-25T02:12:45.017Z,5.90
2018-11-25T02:15:14.897Z,6.00
2018-11-25T02:17:43.850Z,5.90
2018-11-25T02:20:20.851Z,6.10
2018-11-25T02:22:50.256Z,6.10
2018-11-25T02:25:20.076Z,6.10
2018-11-25T02:27:49.059Z,6.10
2018-11-25T02:30:18.182Z,5.90
2018-11-25T02:32:47.421Z,5.90
2018-11-25T02:35:17.076Z,5.90
2018-11-25T02:37:46.121Z,6.00
2018-11-25T02:40:15.913Z,5.90
2018-11-25T02:42:44.896Z,5.90
2018-11-25T02:45:17.555Z,6.00
2018-11-25T02:47:46.521Z,6.10
2018-11-25T02:50:22.911Z,6.10
2018-11-25T02:52:51.952Z,6.10
2018-11-25T02:55:22.945Z,6.20
2018-11-25T02:57:51.912Z,6.20
2018-11-25T03:00:20.878Z,6.30
2018-11-25T03:02:49.815Z,6.20
2018-11-25T03:05:18.764Z,6.10
2018-11-25T03:07:47.692Z,6.00
2018-11-25T03:10:16.652Z,6.00
2018-11-25T03:12:45.693Z,6.00
2018-11-25T03:15:16.632Z,6.00
2018-11-25T03:17:45.644Z,6.00
2018-11-25T03:20:16.311Z,5.90
2018-11-25T03:22:45.269Z,5.90
2018-11-25T03:25:17.251Z,5.90
2018-11-25T03:27:46.263Z,5.80
2018-11-25T03:30:17.052Z,5.80
2018-11-25T03:32:46.839Z,5.80
2018-11-25T03:35:15.835Z,5.90
2018-11-25T03:37:44.740Z,5.90
2018-11-25T03:40:15.493Z,5.90
2018-11-25T03:42:44.443Z,5.90
2018-11-25T03:45:15.233Z,6.00
2018-11-25T03:47:44.154Z,6.00
2018-11-25T03:50:13.730Z,6.30
2018-11-25T03:52:42.688Z,6.20
2018-11-25T03:55:13.454Z,6.10
2018-11-25T03:57:42.392Z,6.20
2018-11-25T04:00:12.623Z,6.10
2018-11-25T04:02:41.557Z,6.10
2018-11-25T04:05:11.681Z,6.10
2018-11-25T04:07:40.656Z,6.10
2018-11-25T04:10:12.637Z,6.10
2018-11-25T04:12:41.588Z,6.10
2018-11-25T04:15:11.565Z,6.20
2018-11-25T04:17:40.515Z,6.20
2018-11-25T04:20:11.084Z,6.20
2018-11-25T04:22:40.042Z,6.20
2018-11-25T04:25:09.895Z,6.10
2018-11-25T04:27:38.878Z,6.10
2018-11-25T04:30:12.081Z,6.00
2018-11-25T04:32:49.042Z,6.00
2018-11-25T04:35:18.044Z,6.00
2018-11-25T04:37:47.000Z,6.00
2018-11-25T04:40:17.874Z,6.00
2018-11-25T04:42:46.874Z,6.00
2018-11-25T04:45:16.583Z,5.90
2018-11-25T04:47:46.295Z,6.00
2018-11-25T04:50:17.221Z,6.20
2018-11-25T04:52:46.167Z,6.40
2018-11-25T04:55:15.146Z,6.20
2018-11-25T04:57:50.853Z,6.10
2018-11-25T05:00:19.993Z,6.00
2018-11-25T05:02:49.808Z,6.00
2018-11-25T05:05:18.758Z,5.90
2018-11-25T05:07:47.713Z,5.80
2018-11-25T05:10:17.474Z,5.70
2018-11-25T05:12:46.435Z,5.80
2018-11-25T05:15:17.264Z,5.90
2018-11-25T05:17:46.220Z,5.90
2018-11-25T05:20:15.661Z,5.90
2018-11-25T05:22:44.631Z,6.00
2018-11-25T05:25:15.389Z,6.00
2018-11-25T05:27:44.352Z,6.00
2018-11-25T05:30:14.517Z,6.20
2018-11-25T05:32:43.455Z,6.10
2018-11-25T05:35:14.563Z,6.10
2018-11-25T05:37:43.531Z,6.00
2018-11-25T05:40:13.464Z,5.90
2018-11-25T05:42:42.512Z,5.80
2018-11-25T05:45:12.578Z,5.80
2018-11-25T05:47:41.507Z,5.70
2018-11-25T05:50:12.404Z,5.70
2018-11-25T05:52:41.362Z,5.70
2018-11-25T05:55:11.317Z,5.70
2018-11-25T05:57:40.285Z,5.60
2018-11-25T06:00:11.941Z,5.70
2018-11-25T06:02:40.906Z,5.70
2018-11-25T06:05:09.848Z,5.80
2018-11-25T06:07:38.861Z,5.80
2018-11-25T06:10:11.835Z,5.70
2018-11-25T06:12:40.852Z,5.60
2018-11-25T06:15:11.030Z,5.50
2018-11-25T06:17:40.037Z,5.60
2018-11-25T06:20:13.154Z,5.80
2018-11-25T06:22:42.148Z,5.90
2018-11-25T06:25:13.927Z,5.80
2018-11-25T06:27:42.878Z,5.70
2018-11-25T06:30:16.777Z,5.60
2018-11-25T06:32:45.800Z,5.60
2018-11-25T06:35:15.681Z,5.70
2018-11-25T06:37:44.663Z,5.70
2018-11-25T06:40:17.564Z,5.60
2018-11-25T06:42:46.527Z,5.90
2018-11-25T06:45:23.653Z,5.90
2018-11-25T06:47:53.254Z,6.00
2018-11-25T06:50:22.197Z,6.00
2018-11-25T06:52:51.140Z,6.00
2018-11-25T06:55:20.140Z,5.70
2018-11-25T06:57:49.074Z,5.60
2018-11-25T07:00:20.570Z,5.80
2018-11-25T07:02:49.797Z,5.80
2018-11-25T07:05:18.762Z,6.00
2018-11-25T07:07:47.723Z,6.20
2018-11-25T07:10:23.174Z,6.20
2018-11-25T07:12:54.040Z,6.00
2018-11-25T07:15:22.976Z,5.80
2018-11-25T07:17:52.351Z,5.80
2018-11-25T07:20:21.324Z,5.30
2018-11-25T07:22:50.300Z,5.00
2018-11-25T07:25:21.345Z,4.90
2018-11-25T07:27:50.497Z,5.20
2018-11-25T07:30:22.648Z,5.60
2018-11-25T07:32:51.740Z,5.70
2018-11-25T07:35:20.913Z,5.70
2018-11-25T07:37:50.209Z,5.70
2018-11-25T07:40:20.943Z,5.60
2018-11-25T07:42:50.135Z,5.60
2018-11-25T07:45:20.724Z,5.60
2018-11-25T07:47:49.686Z,5.70
2018-11-25T07:50:18.812Z,5.70
2018-11-25T07:52:48.427Z,5.60
2018-11-25T07:55:24.582Z,5.70
2018-11-25T07:57:54.888Z,5.60
2018-11-25T08:00:24.726Z,5.60
2018-11-25T08:02:53.684Z,5.60
2018-11-25T08:05:24.916Z,5.50
2018-11-25T08:07:53.827Z,5.50
2018-11-25T08:10:22.789Z,5.30
2018-11-25T08:12:51.708Z,5.30
2018-11-25T08:15:20.950Z,5.20
2018-11-25T08:17:49.883Z,5.30
2018-11-25T08:20:20.780Z,5.40
2018-11-25T08:22:49.852Z,5.40
2018-11-25T08:25:19.731Z,5.40
2018-11-25T08:27:48.699Z,5.50
2018-11-25T08:30:18.701Z,5.50
2018-11-25T08:32:47.636Z,5.50
2018-11-25T08:35:18.234Z,5.50
2018-11-25T08:37:47.528Z,5.50
2018-11-25T08:40:19.632Z,5.50
2018-11-25T08:42:48.572Z,5.60
2018-11-25T08:45:17.522Z,5.40
2018-11-25T08:47:46.459Z,5.50
2018-11-25T08:50:17.214Z,5.60
2018-11-25T08:52:47.324Z,5.60
2018-11-25T08:55:18.066Z,5.60
2018-11-25T08:57:46.969Z,5.80
2018-11-25T09:00:17.929Z,5.80
2018-11-25T09:02:47.135Z,5.80
2018-11-25T09:05:16.368Z,5.90
2018-11-25T09:07:45.320Z,5.90
2018-11-25T09:10:22.388Z,6.00
2018-11-25T09:12:56.028Z,6.20
2018-11-25T09:15:24.874Z,6.10
2018-11-25T09:17:53.820Z,6.00
2018-11-25T09:20:22.847Z,6.00
2018-11-25T09:22:52.358Z,6.00
2018-11-25T09:25:22.706Z,5.90
2018-11-25T09:27:52.056Z,5.90
2018-11-25T09:30:22.112Z,5.90
2018-11-25T09:32:51.047Z,6.00
2018-11-25T09:35:20.025Z,6.00
2018-11-25T09:37:48.968Z,6.00
2018-11-25T09:40:22.898Z,6.00
2018-11-25T09:42:51.825Z,6.00
2018-11-25T09:45:20.996Z,6.00
2018-11-25T09:47:50.484Z,6.00
2018-11-25T09:50:20.325Z,6.00
2018-11-25T09:52:49.251Z,6.00
2018-11-25T09:55:20.138Z,6.10
2018-11-25T09:58:03.841Z,6.00
2018-11-25T10:00:33.916Z,6.10
2018-11-25T10:03:03.688Z,6.10
2018-11-25T10:05:32.626Z,6.10
2018-11-25T10:08:01.668Z,6.10
2018-11-25T10:10:30.604Z,6.20
2018-11-25T10:12:59.542Z,6.10
2018-11-25T10:15:29.208Z,6.20
2018-11-25T10:17:59.946Z,5.90
2018-11-25T10:20:29.560Z,5.90
2018-11-25T10:22:58.489Z,5.90
2018-11-25T10:25:27.440Z,6.00
2018-11-25T10:27:56.494Z,6.10
2018-11-25T10:30:27.356Z,6.30
2018-11-25T10:32:58.399Z,6.30
2018-11-25T10:35:28.763Z,6.40
2018-11-25T10:37:57.775Z,6.40
2018-11-25T10:40:27.773Z,6.30
2018-11-25T10:42:56.793Z,6.30
2018-11-25T10:45:26.510Z,6.20
2018-11-25T10:47:56.996Z,6.30
2018-11-25T10:50:25.953Z,6.20
2018-11-25T10:52:54.913Z,6.30
2018-11-25T10:55:23.929Z,6.30
2018-11-25T10:57:53.467Z,6.20
2018-11-25T11:00:31.398Z,6.30
2018-11-25T11:03:06.479Z,6.40
2018-11-25T11:05:40.805Z,6.40
2018-11-25T11:08:10.096Z,6.50
2018-11-25T11:10:39.080Z,6.60
2018-11-25T11:13:08.495Z,6.70
2018-11-25T11:15:37.491Z,6.70
2018-11-25T11:18:07.093Z,6.60
2018-11-25T11:20:36.070Z,6.70
2018-11-25T11:23:05.008Z,6.70
2018-11-25T11:25:33.973Z,6.70
2018-11-25T11:28:02.985Z,6.90
2018-11-25T11:30:31.926Z,7.40
2018-11-25T11:33:00.904Z,7.40
2018-11-25T11:35:29.870Z,7.40
2018-11-25T11:37:58.879Z,7.40
2018-11-25T11:40:27.820Z,7.40
2018-11-25T11:42:56.852Z,7.20
2018-11-25T11:45:25.900Z,7.20
2018-11-25T11:47:54.885Z,7.00
2018-11-25T11:50:23.886Z,6.90
2018-11-25T11:52:52.834Z,6.90
2018-11-25T11:55:21.857Z,6.80
2018-11-25T11:57:52.037Z,6.80
2018-11-25T12:00:25.377Z,7.00
2018-11-25T12:02:59.998Z,6.90
2018-11-25T12:05:29.036Z,6.80
2018-11-25T12:07:58.131Z,6.70
2018-11-25T12:10:27.445Z,6.70
2018-11-25T12:12:56.460Z,6.80
2018-11-25T12:15:30.875Z,6.80
2018-11-25T12:17:59.257Z,7.00
2018-11-25T12:20:29.985Z,7.00
2018-11-25T12:22:59.383Z,6.90
2018-11-25T12:25:29.395Z,6.80
2018-11-25T12:28:00.821Z,6.80
2018-11-25T12:30:30.618Z,6.80
2018-11-25T12:32:59.594Z,6.80
2018-11-25T12:35:28.559Z,6.80
2018-11-25T12:37:57.519Z,6.80
2018-11-25T12:40:26.466Z,6.90
2018-11-25T12:42:56.789Z,7.00
2018-11-25T12:45:25.741Z,7.00
2018-11-25T12:47:54.717Z,6.90
2018-11-25T12:50:24.839Z,6.80
2018-11-25T12:52:53.978Z,6.90
2018-11-25T12:55:24.162Z,7.00
2018-11-25T12:57:53.429Z,6.90
2018-11-25T13:00:28.619Z,6.90
2018-11-25T13:02:57.586Z,6.90
2018-11-25T13:05:26.533Z,6.80
2018-11-25T13:07:55.498Z,6.80
2018-11-25T13:10:24.466Z,7.30
2018-11-25T13:12:56.379Z,7.30
2018-11-25T13:15:27.555Z,7.50
2018-11-25T13:17:57.055Z,7.40
2018-11-25T13:20:25.983Z,7.30
2018-11-25T13:22:54.928Z,7.50
2018-11-25T13:25:23.881Z,7.40
2018-11-25T13:27:52.833Z,7.10
2018-11-25T13:30:22.975Z,7.20
2018-11-25T13:32:53.313Z,7.60
2018-11-25T13:35:22.429Z,7.70
2018-11-25T13:37:51.371Z,7.70
2018-11-25T13:40:20.360Z,7.80
2018-11-25T13:42:49.306Z,7.50
2018-11-25T13:45:18.223Z,7.40
2018-11-25T13:47:47.222Z,7.30
2018-11-25T13:50:16.170Z,7.60
2018-11-25T13:52:45.126Z,7.70
2018-11-25T13:55:15.573Z,7.70
2018-11-25T14:00:45.981Z,7.70
2018-11-25T14:03:19.735Z,7.60
2018-11-25T14:05:53.223Z,7.30
2018-11-25T14:08:17.691Z,7.20
2018-11-25T14:10:46.648Z,7.40
2018-11-25T14:13:15.610Z,7.50
2018-11-25T14:15:44.569Z,7.20
2018-11-25T14:18:13.474Z,7.40
2018-11-25T14:20:42.497Z,7.20
2018-11-25T14:23:11.463Z,7.00
2018-11-25T14:25:40.660Z,6.80
2018-11-25T14:28:11.096Z,6.80
2018-11-25T14:30:40.048Z,7.00
2018-11-25T14:33:08.997Z,7.20
2018-11-25T14:35:37.931Z,6.90
2018-11-25T14:38:07.510Z,7.00
2018-11-25T14:40:36.437Z,7.10
2018-11-25T14:43:06.116Z,7.00
2018-11-25T14:45:35.092Z,7.20
2018-11-25T14:48:04.049Z,7.30
2018-11-25T14:50:32.991Z,7.10
2018-11-25T14:53:02.007Z,7.30
2018-11-25T14:55:32.171Z,7.50
2018-11-25T14:58:01.167Z,7.40
2018-11-25T15:00:30.132Z,7.10
2018-11-25T15:03:01.404Z,7.00
2018-11-25T15:05:45.694Z,7.00
2018-11-25T15:08:20.950Z,7.10
2018-11-25T15:10:49.878Z,7.20
2018-11-25T15:13:18.892Z,7.00
2018-11-25T15:15:49.248Z,6.80
2018-11-25T15:18:18.196Z,6.70
2018-11-25T15:20:47.231Z,6.80
2018-11-25T15:23:16.450Z,7.20
2018-11-25T15:25:48.082Z,7.00
2018-11-25T15:28:17.019Z,7.00
2018-11-25T15:30:46.025Z,6.90
2018-11-25T15:33:14.945Z,6.80
2018-11-25T15:35:43.913Z,6.80
2018-11-25T15:38:12.926Z,7.00
2018-11-25T15:40:42.117Z,7.30
2018-11-25T15:43:11.835Z,7.40
2018-11-25T15:45:40.813Z,7.20
2018-11-25T15:48:30.953Z,6.70
2018-11-25T15:50:59.946Z,7.20
2018-11-25T15:53:28.907Z,7.10
2018-11-25T15:55:59.791Z,7.30
2018-11-25T15:58:28.742Z,7.50
2018-11-25T16:00:57.727Z,7.40
2018-11-25T16:03:26.703Z,7.40
2018-11-25T16:05:58.321Z,7.30
2018-11-25T16:08:27.313Z,7.30
2018-11-25T16:10:56.333Z,7.20
2018-11-25T16:13:25.311Z,7.30
2018-11-25T16:15:54.355Z,7.10
2018-11-25T16:18:23.327Z,7.00
2018-11-25T16:20:52.299Z,6.90
2018-11-25T16:23:21.277Z,7.00
2018-11-25T16:25:53.146Z,7.00
2018-11-25T16:28:26.917Z,7.00
2018-11-25T16:30:55.918Z,7.00
2018-11-25T16:33:24.870Z,7.00
2018-11-25T16:35:53.859Z,7.00
2018-11-25T16:38:22.823Z,6.90
2018-11-25T16:40:51.781Z,7.00
2018-11-25T16:43:21.851Z,6.90
2018-11-25T16:45:50.896Z,7.40
2018-11-25T16:48:19.904Z,7.70
2018-11-25T16:50:48.951Z,7.40
2018-11-25T16:53:17.908Z,7.60
2018-11-25T16:55:47.031Z,7.60
2018-11-25T16:58:31.168Z,7.50
2018-11-25T17:01:09.822Z,7.10
2018-11-25T17:03:35.283Z,7.50
2018-11-25T17:06:04.641Z,7.30
2018-11-25T17:08:35.497Z,6.90
2018-11-25T17:11:04.658Z,6.90
2018-11-25T17:16:17.889Z,6.80
2018-11-25T17:18:46.894Z,7.10
2018-11-25T17:21:15.934Z,7.50
2018-11-25T17:23:48.474Z,7.20
2018-11-25T17:26:17.552Z,7.20
2018-11-25T17:28:46.533Z,7.10
2018-11-25T17:31:15.538Z,7.20
2018-11-25T17:33:44.509Z,7.60
2018-11-25T17:36:13.525Z,7.60
2018-11-25T17:38:42.577Z,7.50
2018-11-25T17:41:11.581Z,7.20
2018-11-25T17:43:41.510Z,7.30
2018-11-25T17:46:11.144Z,7.10
2018-11-25T17:48:40.141Z,6.90
2018-11-25T17:51:09.139Z,6.80
2018-11-25T17:53:38.121Z,6.70
2018-11-25T17:56:10.610Z,7.20
2018-11-25T17:58:39.548Z,7.50
2018-11-25T18:01:08.555Z,7.60
2018-11-25T18:03:38.240Z,7.60
2018-11-25T18:06:07.294Z,7.60
2018-11-25T18:08:36.238Z,7.20
2018-11-25T18:11:05.440Z,7.00
2018-11-25T18:13:37.668Z,7.00
2018-11-25T18:16:08.962Z,7.00
2018-11-25T18:18:46.928Z,6.90
2018-11-25T18:21:20.971Z,6.80
2018-11-25T18:23:49.914Z,6.80
2018-11-25T18:26:18.867Z,6.60
2018-11-25T18:28:47.798Z,6.40
2018-11-25T18:31:16.763Z,6.40
2018-11-25T18:33:45.717Z,6.50
2018-11-25T18:36:14.788Z,6.80
2018-11-25T18:38:43.742Z,6.50
2018-11-25T18:41:12.719Z,6.90
2018-11-25T18:43:42.109Z,7.00
2018-11-25T18:46:11.081Z,6.90
2018-11-25T18:48:42.848Z,6.70
2018-11-25T18:51:11.827Z,7.10
2018-11-25T18:53:40.867Z,7.00
2018-11-25T18:56:09.824Z,6.80
2018-11-25T18:58:38.889Z,6.80
2018-11-25T19:01:16.598Z,6.90
2018-11-25T19:03:45.526Z,6.90
2018-11-25T19:06:14.479Z,6.80
2018-11-25T19:08:43.443Z,7.10
2018-11-25T19:11:12.648Z,6.80
2018-11-25T19:13:42.238Z,6.60
2018-11-25T19:16:11.190Z,6.70
2018-11-25T19:18:40.139Z,6.80
2018-11-25T19:21:09.109Z,7.00
2018-11-25T19:23:38.096Z,6.90
2018-11-25T19:26:07.357Z,6.60
2018-11-25T19:28:36.354Z,6.70
2018-11-25T19:31:05.325Z,6.70
2018-11-25T19:33:34.459Z,6.60
2018-11-25T19:36:03.408Z,6.60
2018-11-25T19:38:32.338Z,6.30
2018-11-25T19:41:01.270Z,6.20
2018-11-25T19:43:30.224Z,6.20
2018-11-25T19:45:59.161Z,6.10
2018-11-25T19:48:28.091Z,6.20
2018-11-25T19:50:57.114Z,6.60
2018-11-25T19:53:26.070Z,6.60
2018-11-25T19:55:54.986Z,6.40
2018-11-25T19:58:23.947Z,6.30
2018-11-25T20:00:52.888Z,6.60
2018-11-25T20:03:21.824Z,6.50
2018-11-25T20:05:50.771Z,7.00
2018-11-25T20:08:26.529Z,7.00
2018-11-25T20:10:55.456Z,6.90
2018-11-25T20:13:24.446Z,6.90
2018-11-25T20:15:53.387Z,6.80
2018-11-25T20:18:22.386Z,6.60
2018-11-25T20:20:56.556Z,6.40
2018-11-25T20:23:25.514Z,6.70
2018-11-25T20:25:54.415Z,6.90
2018-11-25T20:28:23.371Z,7.10
2018-11-25T20:30:52.297Z,7.00
2018-11-25T20:33:26.728Z,7.00
2018-11-25T20:35:55.658Z,7.00
2018-11-25T20:38:29.983Z,7.30
2018-11-25T20:40:58.900Z,7.20
2018-11-25T20:43:27.833Z,7.20
2018-11-25T20:46:02.001Z,7.00
2018-11-25T20:48:30.936Z,6.60
2018-11-25T20:50:59.877Z,6.20
2018-11-25T20:53:34.115Z,5.90
2018-11-25T20:56:03.026Z,5.90
2018-11-25T20:58:31.990Z,6.40
2018-11-25T21:01:00.923Z,6.80
2018-11-25T21:03:29.942Z,7.10
2018-11-25T21:05:58.976Z,6.80
2018-11-25T21:08:27.932Z,6.50
2018-11-25T21:10:56.855Z,6.50
2018-11-25T21:13:25.820Z,6.50
2018-11-25T21:15:54.755Z,6.20
2018-11-25T21:18:23.703Z,6.10
2018-11-25T21:20:52.675Z,5.80
2018-11-25T21:23:21.625Z,5.70
2018-11-25T21:25:50.580Z,5.80
2018-11-25T21:28:19.527Z,6.10
2018-11-25T21:30:48.502Z,6.40
2018-11-25T21:33:17.428Z,6.80
2018-11-25T21:35:46.357Z,6.70
2018-11-25T21:38:15.333Z,6.80
2018-11-25T21:40:44.276Z,6.60
2018-11-25T21:43:13.294Z,6.50
2018-11-25T21:45:42.285Z,6.50
2018-11-25T21:48:11.347Z,6.60
2018-11-25T21:50:40.332Z,6.60
2018-11-25T21:53:09.261Z,6.60
2018-11-25T21:55:38.233Z,6.70
2018-11-25T21:58:07.309Z,7.00
2018-11-25T22:00:36.248Z,7.30
2018-11-25T22:03:05.175Z,7.40
2018-11-25T22:05:34.120Z,7.40
2018-11-25T22:08:03.803Z,7.20
2018-11-25T22:10:33.541Z,7.30
2018-11-25T22:13:03.474Z,7.00
2018-11-25T22:15:32.421Z,7.30
2018-11-25T22:18:01.366Z,7.40
2018-11-25T22:20:30.343Z,7.30
2018-11-25T22:22:59.328Z,7.50
2018-11-25T22:25:28.291Z,7.50
2018-11-25T22:27:57.268Z,7.50
2018-11-25T22:30:26.277Z,7.40
2018-11-25T22:32:55.212Z,7.20
2018-11-25T22:35:25.356Z,6.80
2018-11-25T22:37:54.329Z,6.80
2018-11-25T22:40:23.472Z,6.70
2018-11-25T22:42:52.455Z,6.50
2018-11-25T22:45:22.629Z,6.90
2018-11-25T22:47:51.599Z,6.90
2018-11-25T22:50:21.432Z,6.80
2018-11-25T22:52:50.476Z,7.10
2018-11-25T22:55:21.821Z,7.10
2018-11-25T22:57:51.038Z,6.80
2018-11-25T23:00:37.469Z,6.60
2018-11-25T23:03:07.094Z,7.00
2018-11-25T23:05:47.476Z,6.90
2018-11-25T23:08:16.427Z,6.90
2018-11-25T23:10:45.362Z,6.80
2018-11-25T23:13:14.338Z,6.80
2018-11-25T23:15:43.303Z,6.80
2018-11-25T23:18:12.276Z,6.60
2018-11-25T23:20:41.226Z,6.80
2018-11-25T23:23:10.186Z,6.80
2018-11-25T23:25:39.159Z,7.00
2018-11-25T23:28:08.072Z,6.80
2018-11-25T23:30:37.119Z,6.80
2018-11-25T23:33:06.084Z,6.70
2018-11-25T23:35:35.139Z,6.80
2018-11-25T23:38:04.129Z,6.70
2018-11-25T23:40:33.100Z,6.60
2018-11-25T23:43:02.107Z,6.70
2018-11-25T23:45:31.043Z,6.60
2018-11-25T23:47:59.979Z,6.80
2018-11-25T23:50:29.108Z,6.90
2018-11-25T23:52:58.130Z,6.80
2018-11-25T23:55:27.092Z,6.80
2018-11-25T23:57:56.052Z,6.70
